createdAt,value
2022-10-05T00:02:24.346Z,21.55
2022-10-05T00:04:57.591Z,24.95
2022-10-05T00:07:30.690Z,17.75
2022-10-05T00:10:14.029Z,16.35
2022-10-05T00:12:48.366Z,18.50
2022-10-05T00:15:23.073Z,19.77
2022-10-05T00:17:56.073Z,15.10
2022-10-05T00:20:28.778Z,20.70
2022-10-05T00:23:07.789Z,20.38
2022-10-05T00:25:42.803Z,14.75
2022-10-05T00:28:29.279Z,19.65
2022-10-05T00:31:01.867Z,18.23
2022-10-05T00:33:34.553Z,14.80
2022-10-05T00:36:07.727Z,17.10
2022-10-05T00:38:41.065Z,20.55
2022-10-05T00:41:31.886Z,25.48
2022-10-05T00:44:22.845Z,23.80
2022-10-05T00:47:13.882Z,25.15
2022-10-05T00:54:13.639Z,19.02
2022-10-05T00:57:22.955Z,20.50
2022-10-05T01:00:13.106Z,22.05
2022-10-05T01:03:16.464Z,21.88
2022-10-05T01:06:22.672Z,25.95
2022-10-05T01:09:22.731Z,22.40
2022-10-05T01:12:17.914Z,22.05
2022-10-05T01:15:11.951Z,19.42
2022-10-05T01:18:12.522Z,18.77
2022-10-05T01:20:57.080Z,19.38
2022-10-05T01:23:55.594Z,19.90
2022-10-05T01:26:37.022Z,19.65
2022-10-05T01:29:28.405Z,22.30
2022-10-05T01:32:12.715Z,22.38
2022-10-05T01:35:02.413Z,20.45
2022-10-05T01:37:44.166Z,19.48
2022-10-05T01:40:25.154Z,19.73
2022-10-05T01:43:03.922Z,18.15
2022-10-05T01:46:00.943Z,21.63
2022-10-05T01:48:47.026Z,18.20
2022-10-05T01:51:19.744Z,18.27
2022-10-05T01:54:03.929Z,16.95
2022-10-05T01:56:50.297Z,19.27
2022-10-05T01:59:40.862Z,23.23
2022-10-05T02:05:16.649Z,17.42
2022-10-05T02:08:00.517Z,18.08
2022-10-05T02:10:49.042Z,22.52
2022-10-05T02:13:44.137Z,19.60
2022-10-05T02:16:30.246Z,19.13
2022-10-05T02:19:08.667Z,18.58
2022-10-05T02:21:43.938Z,20.98
2022-10-05T02:24:29.919Z,15.98
2022-10-05T02:27:05.231Z,20.23
2022-10-05T02:29:42.226Z,18.65
2022-10-05T02:32:27.410Z,24.02
2022-10-05T02:35:07.602Z,16.98
2022-10-05T02:38:06.761Z,16.92
2022-10-05T02:41:01.249Z,19.27
2022-10-05T02:43:46.177Z,17.48
2022-10-05T02:46:35.087Z,19.38
2022-10-05T02:49:20.005Z,16.65
2022-10-05T02:51:58.963Z,23.17
2022-10-05T02:54:42.802Z,20.10
2022-10-05T02:57:53.271Z,19.52
2022-10-05T03:00:28.966Z,17.35
2022-10-05T03:03:28.908Z,18.00
2022-10-05T03:06:07.735Z,16.98
2022-10-05T03:08:52.465Z,15.02
2022-10-05T03:11:46.563Z,17.95
2022-10-05T03:14:54.345Z,24.48
2022-10-05T03:17:37.796Z,18.88
2022-10-05T03:20:56.326Z,21.05
2022-10-05T03:23:59.349Z,18.08
2022-10-05T03:26:47.261Z,18.27
2022-10-05T03:29:42.257Z,15.38
2022-10-05T03:32:42.181Z,20.17
2022-10-05T03:35:28.961Z,18.73
2022-10-05T03:38:08.368Z,18.48
2022-10-05T03:41:08.677Z,20.73
2022-10-05T03:43:59.745Z,19.50
2022-10-05T03:46:48.270Z,24.73
2022-10-05T03:49:58.654Z,21.30
2022-10-05T03:53:06.101Z,20.48
2022-10-05T03:55:48.383Z,27.67
2022-10-05T03:58:53.974Z,29.60
2022-10-05T04:01:40.257Z,22.95
2022-10-05T04:04:23.084Z,29.30
2022-10-05T04:06:57.864Z,27.10
2022-10-05T04:09:36.725Z,25.27
2022-10-05T04:12:15.198Z,23.23
2022-10-05T04:14:53.782Z,26.00
2022-10-05T04:17:49.113Z,24.48
2022-10-05T04:20:27.413Z,21.75
2022-10-05T04:23:11.389Z,24.00
2022-10-05T04:25:57.688Z,31.00
2022-10-05T04:28:46.904Z,20.73
2022-10-05T04:32:00.601Z,28.03
2022-10-05T04:34:57.292Z,20.95
2022-10-05T04:37:56.384Z,28.10
2022-10-05T04:41:00.444Z,25.70
2022-10-05T04:44:15.101Z,29.00
2022-10-05T04:47:08.975Z,23.50
2022-10-05T04:50:05.817Z,21.85
2022-10-05T04:52:58.032Z,22.65
2022-10-05T04:55:52.961Z,23.42
2022-10-05T04:58:36.786Z,23.55
2022-10-05T05:01:43.685Z,24.40
2022-10-05T05:04:25.088Z,29.00
2022-10-05T05:07:03.848Z,30.40
2022-10-05T05:10:03.204Z,27.33
2022-10-05T05:13:17.779Z,29.02
2022-10-05T05:16:01.656Z,25.00
2022-10-05T05:18:52.681Z,29.27
2022-10-05T05:21:45.846Z,23.48
2022-10-05T05:24:54.566Z,26.35
2022-10-05T05:27:47.614Z,25.58
2022-10-05T05:30:24.885Z,27.80
2022-10-05T05:33:25.325Z,29.25
2022-10-05T05:36:17.334Z,24.55
2022-10-05T05:39:20.297Z,20.58
2022-10-05T05:42:22.314Z,25.25
2022-10-05T05:44:59.192Z,27.98
2022-10-05T05:47:38.755Z,25.85
2022-10-05T05:50:22.153Z,26.30
2022-10-05T05:53:04.281Z,23.23
2022-10-05T05:55:42.450Z,27.17
2022-10-05T05:58:37.578Z,19.58
2022-10-05T06:01:32.066Z,28.05
2022-10-05T06:04:31.620Z,30.88
2022-10-05T06:07:06.042Z,21.77
2022-10-05T06:10:10.704Z,25.52
2022-10-05T06:12:47.891Z,28.13
2022-10-05T06:15:56.002Z,21.23
2022-10-05T06:18:32.061Z,26.73
2022-10-05T06:21:23.591Z,25.75
2022-10-05T06:24:21.006Z,22.42
2022-10-05T06:26:56.802Z,23.00
2022-10-05T06:29:55.743Z,25.25
2022-10-05T06:32:46.302Z,24.45
2022-10-05T06:35:43.239Z,22.17
2022-10-05T06:38:35.866Z,21.13
2022-10-05T06:41:14.303Z,20.25
2022-10-05T06:44:00.778Z,18.40
2022-10-05T06:46:46.463Z,19.25
2022-10-05T06:49:31.351Z,29.25
2022-10-05T06:52:18.740Z,28.80
2022-10-05T06:55:13.877Z,17.65
2022-10-05T06:58:04.980Z,18.42
2022-10-05T07:00:52.716Z,14.50
2022-10-05T07:04:10.823Z,15.35
2022-10-05T07:06:58.656Z,23.08
2022-10-05T07:09:49.800Z,13.35
2022-10-05T07:12:43.990Z,11.52
2022-10-05T07:15:41.599Z,11.10
2022-10-05T07:18:42.660Z,17.02
2022-10-05T07:21:56.279Z,12.73
2022-10-05T07:25:01.406Z,8.25
2022-10-05T07:27:37.912Z,10.13
2022-10-05T07:30:13.667Z,13.73
2022-10-05T07:33:00.874Z,10.60
2022-10-05T07:35:52.046Z,8.45
2022-10-05T07:38:39.028Z,9.68
2022-10-05T07:41:21.549Z,11.50
2022-10-05T07:44:12.785Z,10.65
2022-10-05T07:47:03.910Z,11.32
2022-10-05T07:49:59.743Z,8.85
2022-10-05T07:52:47.098Z,8.85
2022-10-05T07:55:31.087Z,9.23
2022-10-05T07:58:29.625Z,8.68
2022-10-05T08:01:31.780Z,14.60
2022-10-05T08:04:13.135Z,9.77
2022-10-05T08:07:02.630Z,7.10
2022-10-05T08:09:43.019Z,10.38
2022-10-05T08:15:10.914Z,11.52
2022-10-05T08:18:05.631Z,9.70
2022-10-05T08:20:53.252Z,6.82
2022-10-05T08:23:38.770Z,9.55
2022-10-05T08:26:24.103Z,12.50
2022-10-05T08:28:59.637Z,10.45
2022-10-05T08:31:46.173Z,8.77
2022-10-05T08:34:45.882Z,11.68
2022-10-05T08:37:18.602Z,12.48
2022-10-05T08:40:18.913Z,9.63
2022-10-05T08:43:16.348Z,11.05
2022-10-05T08:46:13.789Z,8.93
2022-10-05T08:49:25.242Z,6.95
2022-10-05T08:51:58.084Z,10.25
2022-10-05T08:54:45.667Z,8.25
2022-10-05T08:57:18.252Z,10.93
2022-10-05T09:00:02.813Z,6.88
2022-10-05T09:03:08.133Z,10.43
2022-10-05T09:06:22.463Z,10.75
2022-10-05T09:09:02.417Z,7.85
2022-10-05T09:14:36.518Z,6.50
2022-10-05T09:17:11.880Z,8.18
2022-10-05T09:20:27.495Z,8.75
2022-10-05T09:23:14.590Z,7.45
2022-10-05T09:25:57.641Z,7.20
2022-10-05T09:29:11.601Z,8.32
2022-10-05T09:31:58.970Z,5.95
2022-10-05T09:34:53.713Z,8.55
2022-10-05T09:37:44.357Z,7.50
2022-10-05T09:40:22.222Z,11.13
2022-10-05T09:43:19.220Z,9.98
2022-10-05T09:46:11.316Z,10.23
2022-10-05T09:49:11.029Z,5.55
2022-10-05T09:51:49.580Z,6.85
2022-10-05T09:54:40.773Z,10.52
2022-10-05T09:57:34.629Z,7.40
2022-10-05T10:00:50.102Z,4.72
2022-10-05T10:03:56.826Z,7.88
2022-10-05T10:06:53.985Z,6.85
2022-10-05T10:09:50.141Z,6.53
2022-10-05T10:12:47.397Z,8.23
2022-10-05T10:15:52.628Z,12.02
2022-10-05T10:18:42.101Z,10.05
2022-10-05T10:21:35.918Z,6.68
2022-10-05T10:24:14.812Z,6.13
2022-10-05T10:27:08.737Z,10.33
2022-10-05T10:29:59.857Z,9.35
2022-10-05T10:32:51.314Z,12.70
2022-10-05T10:35:36.531Z,9.52
2022-10-05T10:38:35.918Z,9.40
2022-10-05T10:41:26.617Z,10.55
2022-10-05T10:44:27.233Z,10.43
2022-10-05T10:47:08.643Z,11.27
2022-10-05T10:49:59.877Z,18.45
2022-10-05T10:52:54.351Z,10.95
2022-10-05T10:56:06.581Z,13.02
2022-10-05T10:59:29.320Z,15.70
2022-10-05T11:02:18.851Z,8.32
2022-10-05T11:05:26.110Z,10.65
2022-10-05T11:08:07.433Z,13.73
2022-10-05T11:11:08.745Z,11.68
2022-10-05T11:14:02.660Z,7.70
2022-10-05T11:16:58.973Z,9.20
2022-10-05T11:20:09.319Z,8.93
2022-10-05T11:25:55.890Z,9.88
2022-10-05T11:29:03.976Z,6.40
2022-10-05T11:31:55.553Z,7.95
2022-10-05T11:34:43.541Z,6.68
2022-10-05T11:37:37.211Z,8.52
2022-10-05T11:40:33.237Z,10.27
2022-10-05T11:43:42.375Z,7.10
2022-10-05T11:46:35.784Z,5.57
2022-10-05T11:49:20.368Z,10.50
2022-10-05T11:51:55.345Z,8.18
2022-10-05T11:55:11.788Z,6.55
2022-10-05T11:58:00.834Z,10.68
2022-10-05T12:01:00.836Z,7.78
2022-10-05T12:03:40.420Z,7.43
2022-10-05T12:06:29.613Z,5.60
2022-10-05T12:09:20.094Z,5.53
2022-10-05T12:12:22.427Z,5.97
2022-10-05T12:15:09.705Z,9.40
2022-10-05T12:18:00.143Z,8.23
2022-10-05T12:21:27.771Z,8.57
2022-10-05T12:24:09.569Z,8.30
2022-10-05T12:26:50.329Z,9.05
2022-10-05T12:29:27.876Z,11.00
2022-10-05T12:32:11.780Z,8.43
2022-10-05T12:35:03.306Z,6.85
2022-10-05T12:37:58.609Z,13.48
2022-10-05T12:40:56.772Z,6.68
2022-10-05T12:43:40.532Z,4.75
2022-10-05T12:46:24.416Z,7.85
2022-10-05T12:49:15.564Z,8.88
2022-10-05T12:51:53.893Z,6.97
2022-10-05T12:54:38.421Z,11.52
2022-10-05T12:57:30.224Z,4.68
2022-10-05T13:00:02.740Z,6.07
2022-10-05T13:02:49.072Z,5.28
2022-10-05T13:05:40.349Z,13.27
2022-10-05T13:08:52.042Z,5.07
2022-10-05T13:11:36.324Z,4.40
2022-10-05T13:14:21.017Z,4.85
2022-10-05T13:17:19.786Z,5.10
2022-10-05T13:20:03.226Z,10.43
2022-10-05T13:22:42.551Z,7.25
2022-10-05T13:25:23.924Z,5.38
2022-10-05T13:28:20.313Z,4.82
2022-10-05T13:31:06.451Z,10.63
2022-10-05T13:33:48.170Z,5.18
2022-10-05T13:36:42.390Z,3.42
2022-10-05T13:39:36.822Z,5.28
2022-10-05T13:42:28.747Z,6.93
2022-10-05T13:45:15.871Z,3.53
2022-10-05T13:48:14.062Z,7.78
2022-10-05T13:51:08.728Z,4.88
2022-10-05T13:53:56.752Z,4.65
2022-10-05T13:56:42.834Z,2.92
2022-10-05T13:59:50.021Z,6.15
2022-10-05T14:02:39.325Z,6.57
2022-10-05T14:05:17.296Z,7.18
2022-10-05T14:08:04.964Z,5.43
2022-10-05T14:10:46.396Z,4.93
2022-10-05T14:13:26.560Z,7.13
2022-10-05T14:16:04.595Z,3.22
2022-10-05T14:18:38.632Z,5.13
2022-10-05T14:21:11.569Z,7.35
2022-10-05T14:23:44.845Z,8.48
2022-10-05T14:26:23.744Z,6.20
2022-10-05T14:29:00.765Z,3.97
2022-10-05T14:31:36.582Z,2.42
2022-10-05T14:34:34.593Z,4.47
2022-10-05T14:37:19.724Z,29.73
2022-10-05T14:39:57.549Z,3.53
2022-10-05T14:42:46.294Z,8.55
2022-10-05T14:45:23.709Z,8.15
2022-10-05T14:48:08.900Z,4.45
2022-10-05T14:50:57.139Z,2.35
2022-10-05T14:53:46.158Z,9.43
2022-10-05T14:56:40.396Z,7.00
2022-10-05T14:59:45.923Z,8.00
2022-10-05T15:02:40.295Z,5.43
2022-10-05T15:05:47.971Z,7.30
2022-10-05T15:08:33.892Z,6.15
2022-10-05T15:11:09.255Z,4.90
2022-10-05T15:13:44.279Z,5.63
2022-10-05T15:16:26.263Z,13.52
2022-10-05T15:19:21.029Z,10.98
2022-10-05T15:22:41.967Z,10.30
2022-10-05T15:25:22.333Z,5.45
2022-10-05T15:28:09.915Z,9.55
2022-10-05T15:31:06.822Z,18.30
2022-10-05T15:33:50.462Z,26.25
2022-10-05T15:36:35.568Z,10.20
2022-10-05T15:39:35.983Z,5.50
2022-10-05T15:42:21.558Z,8.88
2022-10-05T15:45:06.592Z,8.43
2022-10-05T15:47:44.704Z,5.90
2022-10-05T15:50:26.371Z,7.95
2022-10-05T15:53:15.438Z,13.10
2022-10-05T15:56:14.854Z,14.53
2022-10-05T15:58:55.557Z,4.07
2022-10-05T16:01:34.384Z,8.90
2022-10-05T16:04:20.649Z,6.20
2022-10-05T16:07:20.163Z,7.05
2022-10-05T16:10:14.023Z,9.97
2022-10-05T16:12:52.915Z,4.53
2022-10-05T16:15:36.306Z,4.43
2022-10-05T16:18:50.246Z,6.35
2022-10-05T16:21:46.450Z,6.07
2022-10-05T16:24:37.792Z,5.68
2022-10-05T16:27:39.514Z,11.02
2022-10-05T16:30:16.743Z,6.05
2022-10-05T16:32:52.114Z,8.27
2022-10-05T16:35:44.439Z,5.68
2022-10-05T16:38:55.044Z,5.45
2022-10-05T16:41:43.238Z,3.90
2022-10-05T16:44:34.083Z,6.40
2022-10-05T16:47:27.540Z,7.20
2022-10-05T16:50:24.806Z,6.90
2022-10-05T16:53:03.295Z,10.02
2022-10-05T16:55:40.883Z,7.05
2022-10-05T16:59:04.321Z,7.90
2022-10-05T17:01:48.102Z,7.45
2022-10-05T17:04:41.966Z,8.63
2022-10-05T17:07:22.850Z,6.97
2022-10-05T17:10:14.294Z,5.40
2022-10-05T17:12:53.295Z,7.57
2022-10-05T17:15:32.888Z,10.23
2022-10-05T17:18:19.875Z,3.87
2022-10-05T17:21:09.373Z,5.90
2022-10-05T17:23:42.706Z,7.70
2022-10-05T17:26:39.680Z,20.33
2022-10-05T17:29:33.877Z,12.90
2022-10-05T17:32:06.567Z,14.38
2022-10-05T17:35:03.129Z,13.32
2022-10-05T17:37:40.441Z,14.07
2022-10-05T17:40:41.211Z,18.85
2022-10-05T17:43:17.172Z,21.80
2022-10-05T17:45:53.877Z,27.65
2022-10-05T17:49:03.197Z,19.85
2022-10-05T17:51:54.334Z,21.88
2022-10-05T17:54:58.525Z,25.90
2022-10-05T17:57:32.034Z,16.15
2022-10-05T18:00:27.817Z,18.08
2022-10-05T18:03:00.405Z,16.30
2022-10-05T18:05:33.213Z,14.20
2022-10-05T18:08:16.584Z,15.05
2022-10-05T18:11:37.814Z,16.17
2022-10-05T18:14:24.584Z,16.50
2022-10-05T18:17:19.284Z,12.38
2022-10-05T18:20:25.530Z,15.75
2022-10-05T18:23:01.511Z,14.82
2022-10-05T18:25:38.316Z,13.15
2022-10-05T18:28:48.369Z,15.27
2022-10-05T18:31:35.664Z,15.32
2022-10-05T18:34:26.498Z,15.88
2022-10-05T18:37:21.324Z,10.43
2022-10-05T18:40:06.088Z,9.60
2022-10-05T18:42:50.774Z,13.10
2022-10-05T18:45:38.780Z,8.35
2022-10-05T18:48:36.433Z,11.68
2022-10-05T18:51:29.076Z,16.67
2022-10-05T18:54:39.309Z,10.93
2022-10-05T18:57:31.599Z,13.40
2022-10-05T19:00:15.002Z,19.35
2022-10-05T19:02:57.287Z,16.45
2022-10-05T19:05:53.350Z,18.08
2022-10-05T19:08:45.110Z,15.75
2022-10-05T19:11:51.229Z,18.35
2022-10-05T19:14:48.906Z,20.65
2022-10-05T19:17:47.579Z,15.23
2022-10-05T19:20:23.303Z,17.50
2022-10-05T19:23:17.218Z,18.85
2022-10-05T19:26:02.718Z,19.10
2022-10-05T19:28:53.042Z,20.38
2022-10-05T19:31:48.415Z,18.83
2022-10-05T19:34:45.061Z,16.10
2022-10-05T19:37:50.897Z,14.07
2022-10-05T19:40:34.634Z,15.30
2022-10-05T19:43:23.333Z,15.52
2022-10-05T19:46:27.524Z,14.15
2022-10-05T19:49:00.626Z,17.70
2022-10-05T19:51:36.122Z,12.32
2022-10-05T19:54:14.259Z,12.10
2022-10-05T19:56:49.994Z,15.68
2022-10-05T19:59:31.527Z,21.30
2022-10-05T20:02:04.340Z,14.88
2022-10-05T20:04:43.268Z,15.85
2022-10-05T20:07:21.743Z,13.13
2022-10-05T20:09:54.546Z,12.52
2022-10-05T20:13:02.122Z,15.63
2022-10-05T20:15:55.053Z,20.65
2022-10-05T20:18:58.321Z,15.25
2022-10-05T20:21:40.272Z,15.00
2022-10-05T20:24:23.641Z,15.10
2022-10-05T20:27:06.303Z,14.65
2022-10-05T20:29:41.515Z,17.25
2022-10-05T20:32:18.095Z,15.70
2022-10-05T20:34:51.220Z,13.98
2022-10-05T20:37:24.494Z,11.57
2022-10-05T20:39:57.098Z,12.93
2022-10-05T20:42:30.031Z,13.70
2022-10-05T20:45:03.476Z,15.13
2022-10-05T20:47:37.722Z,12.25
2022-10-05T20:50:11.179Z,14.45
2022-10-05T20:52:43.976Z,18.27
2022-10-05T20:55:16.711Z,13.85
2022-10-05T20:57:49.741Z,14.88
2022-10-05T21:00:22.605Z,18.38
2022-10-05T21:02:55.669Z,10.75
2022-10-05T21:05:28.263Z,18.58
2022-10-05T21:08:01.805Z,21.08
2022-10-05T21:10:36.995Z,18.10
2022-10-05T21:13:09.997Z,15.27
2022-10-05T21:15:42.805Z,13.05
2022-10-05T21:18:18.265Z,17.13
2022-10-05T21:20:51.016Z,16.25
2022-10-05T21:23:51.318Z,16.58
2022-10-05T21:26:30.348Z,15.70
2022-10-05T21:29:06.863Z,13.77
2022-10-05T21:31:42.947Z,23.63
2022-10-05T21:34:15.996Z,13.18
2022-10-05T21:36:48.789Z,15.02
2022-10-05T21:39:22.153Z,15.07
2022-10-05T21:41:54.989Z,16.48
2022-10-05T21:44:28.119Z,12.45
2022-10-05T21:47:01.177Z,15.27
2022-10-05T21:49:36.297Z,15.05
2022-10-05T21:52:08.957Z,16.98
2022-10-05T21:54:41.906Z,10.20
2022-10-05T21:57:15.509Z,11.63
2022-10-05T21:59:48.977Z,12.98
2022-10-05T22:02:21.697Z,12.65
2022-10-05T22:04:54.612Z,14.48
2022-10-05T22:07:29.128Z,13.13
2022-10-05T22:10:02.793Z,16.52
2022-10-05T22:12:35.621Z,11.77
2022-10-05T22:15:09.174Z,15.15
2022-10-05T22:17:42.907Z,14.82
2022-10-05T22:20:15.843Z,13.43
2022-10-05T22:22:48.552Z,24.45
2022-10-05T22:25:22.786Z,12.85
2022-10-05T22:27:55.796Z,14.43
2022-10-05T22:30:29.607Z,18.25
2022-10-05T22:33:02.390Z,12.82
2022-10-05T22:35:36.382Z,13.85
2022-10-05T22:38:09.310Z,14.27
2022-10-05T22:40:42.174Z,16.67
2022-10-05T22:43:14.856Z,14.73
2022-10-05T22:45:47.752Z,15.18
2022-10-05T22:48:20.729Z,16.02
2022-10-05T22:50:53.592Z,18.38
2022-10-05T22:53:26.230Z,12.60
2022-10-05T22:56:05.290Z,13.10
2022-10-05T22:58:38.852Z,16.83
2022-10-05T23:01:15.350Z,13.07
2022-10-05T23:03:48.161Z,13.98
2022-10-05T23:06:21.425Z,13.32
2022-10-05T23:08:55.157Z,17.10
2022-10-05T23:11:28.961Z,15.35
2022-10-05T23:14:01.935Z,16.23
2022-10-05T23:16:34.841Z,16.80
2022-10-05T23:19:07.622Z,14.48
2022-10-05T23:21:40.537Z,18.42
2022-10-05T23:24:13.241Z,13.50
2022-10-05T23:26:46.167Z,17.08
2022-10-05T23:29:19.013Z,15.52
2022-10-05T23:31:51.913Z,15.45
2022-10-05T23:34:25.791Z,16.83
2022-10-05T23:36:58.586Z,16.48
2022-10-05T23:39:31.399Z,28.23
2022-10-05T23:42:05.218Z,13.40
2022-10-05T23:44:37.866Z,16.08
2022-10-05T23:47:10.920Z,12.85
2022-10-05T23:49:43.656Z,17.90
2022-10-05T23:52:16.612Z,17.80
2022-10-05T23:54:49.336Z,14.43
2022-10-05T23:57:22.424Z,17.85
2022-10-05T23:59:56.392Z,20.17
